createdAt,value
2023-02-25T00:00:39.760Z,924.12
2023-02-25T00:01:40.329Z,924.21
2023-02-25T00:02:41.091Z,924.2
2023-02-25T00:03:41.661Z,924.18
2023-02-25T00:04:42.151Z,924.18
2023-02-25T00:05:42.403Z,924.22
2023-02-25T00:06:42.802Z,924.25
2023-02-25T00:07:43.751Z,924.3
2023-02-25T00:08:44.802Z,924.3
2023-02-25T00:09:45.104Z,924.35
2023-02-25T00:10:45.310Z,924.26
2023-02-25T00:11:45.503Z,924.29
2023-02-25T00:12:46.443Z,924.25
2023-02-25T00:13:52.820Z,924.36
2023-02-25T00:14:53.750Z,924.35
2023-02-25T00:15:53.967Z,924.25
2023-02-25T00:16:54.292Z,924.23
2023-02-25T00:17:54.820Z,924.31
2023-02-25T00:18:55.719Z,924.31
2023-02-25T00:19:55.933Z,924.36
2023-02-25T00:20:56.872Z,924.36
2023-02-25T00:21:57.818Z,924.32
2023-02-25T00:22:58.152Z,924.31
2023-02-25T00:24:07.423Z,924.21
2023-02-25T00:24:59.663Z,924.18
2023-02-25T00:25:59.770Z,924.16
2023-02-25T00:27:00.428Z,924.19
2023-02-25T00:28:00.659Z,924.19
2023-02-25T00:29:00.888Z,924.15
2023-02-25T00:30:01.088Z,924.14
2023-02-25T00:31:01.831Z,924.12
2023-02-25T00:32:02.607Z,924.18
2023-02-25T00:33:02.820Z,924.23
2023-02-25T00:34:03.153Z,924.21
2023-02-25T00:35:04.090Z,924.21
2023-02-25T00:36:04.583Z,924.16
2023-02-25T00:37:05.136Z,924.27
2023-02-25T00:38:15.212Z,924.26
2023-02-25T00:39:06.017Z,924.33
2023-02-25T00:40:06.471Z,924.41
2023-02-25T00:41:06.786Z,924.47
2023-02-25T00:42:07.815Z,924.55
2023-02-25T00:43:08.762Z,924.53
2023-02-25T00:44:09.037Z,924.54
2023-02-25T00:45:09.977Z,924.53
2023-02-25T00:46:10.564Z,924.44
2023-02-25T00:47:10.674Z,924.4
2023-02-25T00:48:10.932Z,924.37
2023-02-25T00:49:13.337Z,924.39
2023-02-25T00:50:11.921Z,924.4
2023-02-25T00:51:12.930Z,924.43
2023-02-25T00:52:13.217Z,924.42
2023-02-25T00:53:13.419Z,924.39
2023-02-25T00:54:14.290Z,924.38
2023-02-25T00:55:14.527Z,924.42
2023-02-25T00:56:14.774Z,924.46
2023-02-25T00:57:15.846Z,924.42
2023-02-25T00:58:16.767Z,924.38
2023-02-25T00:59:17.678Z,924.36
2023-02-25T01:00:18.174Z,924.34
2023-02-25T01:01:18.700Z,924.36
2023-02-25T01:02:19.400Z,924.34
2023-02-25T01:03:20.084Z,924.36
2023-02-25T01:04:20.564Z,924.42
2023-02-25T01:05:20.865Z,924.43
2023-02-25T01:06:21.690Z,924.39
2023-02-25T01:07:21.429Z,924.39
2023-02-25T01:08:22.366Z,924.42
2023-02-25T01:09:22.998Z,924.46
2023-02-25T01:10:23.263Z,924.42
2023-02-25T01:11:23.795Z,924.38
2023-02-25T01:12:24.714Z,924.42
2023-02-25T01:13:25.641Z,924.39
2023-02-25T01:14:26.729Z,924.38
2023-02-25T01:15:27.219Z,924.34
2023-02-25T01:16:27.890Z,924.37
2023-02-25T01:17:28.112Z,924.37
2023-02-25T01:18:28.766Z,924.37
2023-02-25T01:19:29.696Z,924.38
2023-02-25T01:20:30.285Z,924.39
2023-02-25T01:21:30.488Z,924.39
2023-02-25T01:22:30.855Z,924.36
2023-02-25T01:23:31.840Z,924.35
2023-02-25T01:24:32.130Z,924.32
2023-02-25T01:25:32.331Z,924.36
2023-02-25T01:26:32.861Z,924.32
2023-02-25T01:27:33.358Z,924.33
2023-02-25T01:28:33.690Z,924.3
2023-02-25T01:29:34.328Z,924.33
2023-02-25T01:30:34.573Z,924.3
2023-02-25T01:31:35.673Z,924.28
2023-02-25T01:32:36.213Z,924.24
2023-02-25T01:33:36.516Z,924.2
2023-02-25T01:34:36.839Z,924.2
2023-02-25T01:35:37.766Z,924.22
2023-02-25T01:36:38.696Z,924.2
2023-02-25T01:37:38.942Z,924.24
2023-02-25T01:38:39.890Z,924.2
2023-02-25T01:39:40.389Z,924.25
2023-02-25T01:40:41.317Z,924.24
2023-02-25T01:41:42.298Z,924.23
2023-02-25T01:42:43.241Z,924.16
2023-02-25T01:43:43.459Z,924.2
2023-02-25T01:44:44.329Z,924.21
2023-02-25T01:45:44.973Z,924.24
2023-02-25T01:46:45.470Z,924.23
2023-02-25T01:47:46.169Z,924.25
2023-02-25T01:48:47.104Z,924.23
2023-02-25T01:49:47.314Z,924.27
2023-02-25T01:50:47.982Z,924.29
2023-02-25T01:51:48.624Z,924.29
2023-02-25T01:52:48.886Z,924.32
2023-02-25T01:53:49.520Z,924.37
2023-02-25T01:54:50.284Z,924.42
2023-02-25T01:55:50.911Z,924.4
2023-02-25T01:56:51.881Z,924.44
2023-02-25T01:57:52.820Z,924.53
2023-02-25T01:58:53.746Z,924.59
2023-02-25T01:59:54.669Z,924.61
2023-02-25T02:00:54.917Z,924.58
2023-02-25T02:01:55.256Z,924.55
2023-02-25T02:02:55.571Z,924.55
2023-02-25T02:03:56.547Z,924.54
2023-02-25T02:04:56.846Z,924.55
2023-02-25T02:05:57.108Z,924.54
2023-02-25T02:06:57.346Z,924.5
2023-02-25T02:07:57.592Z,924.45
2023-02-25T02:08:58.074Z,924.42
2023-02-25T02:09:58.264Z,924.39
2023-02-25T02:10:58.669Z,924.42
2023-02-25T02:11:59.644Z,924.43
2023-02-25T02:13:00.565Z,924.43
2023-02-25T02:14:00.761Z,924.47
2023-02-25T02:15:01.490Z,924.47
2023-02-25T02:16:02.497Z,924.55
2023-02-25T02:17:03.364Z,924.58
2023-02-25T02:18:03.860Z,924.61
2023-02-25T02:19:04.804Z,924.63
2023-02-25T02:20:05.320Z,924.59
2023-02-25T02:21:06.289Z,924.53
2023-02-25T02:22:07.218Z,924.49
2023-02-25T02:23:07.470Z,924.48
2023-02-25T02:24:07.713Z,924.49
2023-02-25T02:25:08.436Z,924.47
2023-02-25T02:26:09.086Z,924.55
2023-02-25T02:27:09.576Z,924.58
2023-02-25T02:28:10.318Z,924.6
2023-02-25T02:29:10.540Z,924.58
2023-02-25T02:30:11.181Z,924.64
2023-02-25T02:31:11.592Z,924.65
2023-02-25T02:32:12.132Z,924.64
2023-02-25T02:33:12.635Z,924.65
2023-02-25T02:34:13.622Z,924.67
2023-02-25T02:35:13.918Z,924.68
2023-02-25T02:36:14.142Z,924.71
2023-02-25T02:37:14.335Z,924.74
2023-02-25T02:38:15.320Z,924.72
2023-02-25T02:39:16.337Z,924.73
2023-02-25T02:40:16.988Z,924.79
2023-02-25T02:41:17.921Z,924.81
2023-02-25T02:42:18.889Z,924.86
2023-02-25T02:43:19.508Z,924.87
2023-02-25T02:44:20.012Z,924.85
2023-02-25T02:45:20.704Z,924.79
2023-02-25T02:46:21.822Z,924.74
2023-02-25T02:47:22.348Z,924.71
2023-02-25T02:48:22.563Z,924.73
2023-02-25T02:49:23.512Z,924.68
2023-02-25T02:50:23.725Z,924.68
2023-02-25T02:51:24.413Z,924.67
2023-02-25T02:52:25.364Z,924.75
2023-02-25T02:53:25.613Z,924.74
2023-02-25T02:54:25.975Z,924.76
2023-02-25T02:55:26.776Z,924.66
2023-02-25T02:56:27.719Z,924.6
2023-02-25T02:57:28.446Z,924.62
2023-02-25T02:58:29.390Z,924.66
2023-02-25T02:59:30.357Z,924.69
2023-02-25T03:00:30.862Z,924.77
2023-02-25T03:01:31.372Z,924.77
2023-02-25T03:02:31.386Z,924.82
2023-02-25T03:03:31.625Z,924.88
2023-02-25T03:04:32.194Z,924.9
2023-02-25T03:05:32.490Z,924.95
2023-02-25T03:06:32.979Z,924.92
2023-02-25T03:07:33.937Z,924.88
2023-02-25T03:08:34.211Z,924.87
2023-02-25T03:09:34.861Z,924.83
2023-02-25T03:10:35.511Z,924.84
2023-02-25T03:11:36.419Z,924.83
2023-02-25T03:12:37.382Z,924.86
2023-02-25T03:13:38.293Z,924.82
2023-02-25T03:14:39.273Z,924.84
2023-02-25T03:15:40.356Z,924.91
2023-02-25T03:16:41.359Z,924.89
2023-02-25T03:17:42.376Z,924.9
2023-02-25T03:18:42.867Z,924.91
2023-02-25T03:19:43.394Z,924.94
2023-02-25T03:20:43.613Z,924.94
2023-02-25T03:21:44.551Z,924.96
2023-02-25T03:22:45.482Z,924.95
2023-02-25T03:23:46.013Z,924.97
2023-02-25T03:24:46.216Z,924.93
2023-02-25T03:25:46.339Z,924.95
2023-02-25T03:26:46.828Z,925.02
2023-02-25T03:27:47.069Z,925.03
2023-02-25T03:28:47.573Z,925.02
2023-02-25T03:29:47.789Z,924.99
2023-02-25T03:30:48.481Z,925.02
2023-02-25T03:31:48.939Z,925.03
2023-02-25T03:32:49.769Z,925
2023-02-25T03:33:50.092Z,924.95
2023-02-25T03:34:50.384Z,924.93
2023-02-25T03:35:50.988Z,924.92
2023-02-25T03:36:51.896Z,925
2023-02-25T03:37:52.850Z,925.02
2023-02-25T03:38:53.150Z,924.98
2023-02-25T03:39:53.795Z,924.95
2023-02-25T03:40:54.715Z,924.94
2023-02-25T03:41:55.214Z,924.98
2023-02-25T03:42:55.485Z,925
2023-02-25T03:43:56.146Z,925.03
2023-02-25T03:44:56.647Z,925.08
2023-02-25T03:45:57.767Z,925.1
2023-02-25T03:46:58.744Z,925.13
2023-02-25T03:47:58.989Z,925.13
2023-02-25T03:48:59.267Z,925.11
2023-02-25T03:49:59.553Z,925.05
2023-02-25T03:51:00.052Z,925.1
2023-02-25T03:52:00.996Z,925.16
2023-02-25T03:53:01.937Z,925.14
2023-02-25T03:54:02.282Z,925.11
2023-02-25T03:55:02.967Z,925.13
2023-02-25T03:56:03.272Z,925.11
2023-02-25T03:57:04.265Z,925.15
2023-02-25T03:58:05.250Z,925.14
2023-02-25T03:59:05.886Z,925.12
2023-02-25T04:00:06.102Z,925.12
2023-02-25T04:01:06.218Z,925.11
2023-02-25T04:02:06.724Z,925.14
2023-02-25T04:03:06.891Z,925.2
2023-02-25T04:04:07.385Z,925.25
2023-02-25T04:05:08.091Z,925.24
2023-02-25T04:06:08.534Z,925.21
2023-02-25T04:07:09.358Z,925.19
2023-02-25T04:08:09.840Z,925.22
2023-02-25T04:09:10.230Z,925.27
2023-02-25T04:10:10.421Z,925.31
2023-02-25T04:11:10.649Z,925.38
2023-02-25T04:12:11.292Z,925.45
2023-02-25T04:13:12.260Z,925.43
2023-02-25T04:14:13.186Z,925.43
2023-02-25T04:15:13.418Z,925.48
2023-02-25T04:16:14.032Z,925.52
2023-02-25T04:17:14.205Z,925.58
2023-02-25T04:18:14.436Z,925.61
2023-02-25T04:19:14.700Z,925.64
2023-02-25T04:20:15.355Z,925.61
2023-02-25T04:21:15.558Z,925.51
2023-02-25T04:22:15.788Z,925.51
2023-02-25T04:23:16.420Z,925.55
2023-02-25T04:24:17.111Z,925.51
2023-02-25T04:25:17.323Z,925.49
2023-02-25T04:26:17.499Z,925.49
2023-02-25T04:27:17.947Z,925.43
2023-02-25T04:28:18.476Z,925.5
2023-02-25T04:29:18.638Z,925.48
2023-02-25T04:30:19.543Z,925.42
2023-02-25T04:31:19.976Z,925.41
2023-02-25T04:32:20.162Z,925.45
2023-02-25T04:33:20.423Z,925.41
2023-02-25T04:34:21.352Z,925.46
2023-02-25T04:35:22.365Z,925.41
2023-02-25T04:36:23.257Z,925.38
2023-02-25T04:37:23.953Z,925.41
2023-02-25T04:38:24.882Z,925.34
2023-02-25T04:39:25.140Z,925.4
2023-02-25T04:40:25.349Z,925.42
2023-02-25T04:41:26.286Z,925.45
2023-02-25T04:42:27.219Z,925.39
2023-02-25T04:43:27.742Z,925.46
2023-02-25T04:44:27.961Z,925.46
2023-02-25T04:45:28.883Z,925.51
2023-02-25T04:46:29.286Z,925.48
2023-02-25T04:47:29.563Z,925.46
2023-02-25T04:48:30.587Z,925.48
2023-02-25T04:49:31.232Z,925.43
2023-02-25T04:50:32.222Z,925.48
2023-02-25T04:51:33.144Z,925.45
2023-02-25T04:52:33.792Z,925.51
2023-02-25T04:53:34.028Z,925.46
2023-02-25T04:54:34.276Z,925.52
2023-02-25T04:55:34.498Z,925.55
2023-02-25T04:56:34.844Z,925.59
2023-02-25T04:57:35.035Z,925.54
2023-02-25T04:58:35.552Z,925.53
2023-02-25T04:59:36.489Z,925.51
2023-02-25T05:00:37.438Z,925.44
2023-02-25T05:01:38.470Z,925.41
2023-02-25T05:02:38.992Z,925.45
2023-02-25T05:03:39.927Z,925.46
2023-02-25T05:04:40.879Z,925.55
2023-02-25T05:05:41.556Z,925.58
2023-02-25T05:06:41.719Z,925.57
2023-02-25T05:07:42.232Z,925.58
2023-02-25T05:08:42.445Z,925.58
2023-02-25T05:09:43.392Z,925.58
2023-02-25T05:10:43.744Z,925.61
2023-02-25T05:11:44.371Z,925.62
2023-02-25T05:12:45.036Z,925.69
2023-02-25T05:13:45.607Z,925.65
2023-02-25T05:14:46.536Z,925.63
2023-02-25T05:15:47.213Z,925.59
2023-02-25T05:16:47.560Z,925.52
2023-02-25T05:17:48.490Z,925.47
2023-02-25T05:18:49.017Z,925.45
2023-02-25T05:19:49.922Z,925.46
2023-02-25T05:20:50.731Z,925.54
2023-02-25T05:21:51.375Z,925.57
2023-02-25T05:22:51.577Z,925.53
2023-02-25T05:23:52.216Z,925.49
2023-02-25T05:24:52.459Z,925.53
2023-02-25T05:25:52.962Z,925.56
2023-02-25T05:26:53.668Z,925.56
2023-02-25T05:27:53.897Z,925.52
2023-02-25T05:28:54.597Z,925.54
2023-02-25T05:29:55.581Z,925.52
2023-02-25T05:30:56.623Z,925.57
2023-02-25T05:31:57.502Z,925.58
2023-02-25T05:32:57.907Z,925.49
2023-02-25T05:33:58.766Z,925.48
2023-02-25T05:34:59.673Z,925.49
2023-02-25T05:35:59.924Z,925.5
2023-02-25T05:37:00.105Z,925.57
2023-02-25T05:38:00.763Z,925.59
2023-02-25T05:39:01.391Z,925.55
2023-02-25T05:40:01.714Z,925.54
2023-02-25T05:41:01.923Z,925.6
2023-02-25T05:42:02.139Z,925.59
2023-02-25T05:43:02.371Z,925.56
2023-02-25T05:44:02.631Z,925.52
2023-02-25T05:45:02.885Z,925.54
2023-02-25T05:46:03.438Z,925.51
2023-02-25T05:47:03.710Z,925.5
2023-02-25T05:48:03.868Z,925.53
2023-02-25T05:49:04.768Z,925.51
2023-02-25T05:50:05.700Z,925.55
2023-02-25T05:51:06.664Z,925.54
2023-02-25T05:52:07.225Z,925.54
2023-02-25T05:53:08.135Z,925.57
2023-02-25T05:54:09.051Z,925.52
2023-02-25T05:55:09.327Z,925.54
2023-02-25T05:56:09.692Z,925.6
2023-02-25T05:57:10.030Z,925.64
2023-02-25T05:58:10.681Z,925.65
2023-02-25T05:59:11.015Z,925.67
2023-02-25T06:00:11.233Z,925.64
2023-02-25T06:01:11.486Z,925.69
2023-02-25T06:02:11.648Z,925.7
2023-02-25T06:03:12.364Z,925.68
2023-02-25T06:04:13.402Z,925.7
2023-02-25T06:05:13.728Z,925.65
2023-02-25T06:06:14.679Z,925.65
2023-02-25T06:07:15.512Z,925.68
2023-02-25T06:08:16.442Z,925.72
2023-02-25T06:09:17.057Z,925.7
2023-02-25T06:10:18.185Z,925.73
2023-02-25T06:11:19.127Z,925.77
2023-02-25T06:12:20.063Z,925.76
2023-02-25T06:13:20.755Z,925.78
2023-02-25T06:14:21.016Z,925.79
2023-02-25T06:15:21.529Z,925.74
2023-02-25T06:16:22.376Z,925.73
2023-02-25T06:17:22.167Z,925.7
2023-02-25T06:18:23.131Z,925.7
2023-02-25T06:19:23.671Z,925.69
2023-02-25T06:20:24.342Z,925.73
2023-02-25T06:21:24.857Z,925.75
2023-02-25T06:22:25.536Z,925.74
2023-02-25T06:23:26.029Z,925.77
2023-02-25T06:24:26.984Z,925.71
2023-02-25T06:25:27.522Z,925.73
2023-02-25T06:26:28.466Z,925.76
2023-02-25T06:27:28.889Z,925.74
2023-02-25T06:28:29.266Z,925.75
2023-02-25T06:29:29.539Z,925.8
2023-02-25T06:30:29.935Z,925.78
2023-02-25T06:31:30.935Z,925.79
2023-02-25T06:32:31.269Z,925.8
2023-02-25T06:33:32.134Z,925.8
2023-02-25T06:34:33.119Z,925.85
2023-02-25T06:35:33.351Z,925.85
2023-02-25T06:36:34.021Z,925.8
2023-02-25T06:37:34.333Z,925.77
2023-02-25T06:38:35.261Z,925.83
2023-02-25T06:39:35.552Z,925.79
2023-02-25T06:40:35.812Z,925.78
2023-02-25T06:41:36.022Z,925.8
2023-02-25T06:42:36.219Z,925.77
2023-02-25T06:43:36.436Z,925.8
2023-02-25T06:44:37.452Z,925.79
2023-02-25T06:45:37.995Z,925.77
2023-02-25T06:46:38.396Z,925.75
2023-02-25T06:47:38.830Z,925.74
2023-02-25T06:48:39.741Z,925.8
2023-02-25T06:49:39.953Z,925.79
2023-02-25T06:50:40.190Z,925.8
2023-02-25T06:51:40.425Z,925.77
2023-02-25T06:52:41.383Z,925.79
2023-02-25T06:53:42.305Z,925.78
2023-02-25T06:54:42.820Z,925.82
2023-02-25T06:55:43.498Z,925.88
2023-02-25T06:56:44.001Z,925.89
2023-02-25T06:57:44.670Z,925.87
2023-02-25T06:58:44.865Z,925.91
2023-02-25T06:59:45.124Z,925.88
2023-02-25T07:00:45.383Z,925.91
2023-02-25T07:01:46.168Z,925.96
2023-02-25T07:02:46.800Z,925.94
2023-02-25T07:03:46.893Z,925.93
2023-02-25T07:04:47.085Z,925.97
2023-02-25T07:05:47.801Z,925.94
2023-02-25T07:06:48.047Z,925.91
2023-02-25T07:07:48.479Z,925.93
2023-02-25T07:08:48.689Z,925.91
2023-02-25T07:09:48.896Z,925.89
2023-02-25T07:10:49.182Z,925.88
2023-02-25T07:11:50.104Z,925.87
2023-02-25T07:12:50.312Z,925.88
2023-02-25T07:13:50.794Z,925.88
2023-02-25T07:14:50.901Z,925.87
2023-02-25T07:15:51.844Z,925.88
2023-02-25T07:16:53.833Z,925.87
2023-02-25T07:17:53.239Z,925.85
2023-02-25T07:18:53.545Z,925.9
2023-02-25T07:19:54.502Z,925.86
2023-02-25T07:20:55.004Z,925.84
2023-02-25T07:21:55.740Z,925.87
2023-02-25T07:22:55.953Z,925.87
2023-02-25T07:23:56.175Z,925.85
2023-02-25T07:24:56.713Z,925.87
2023-02-25T07:25:57.090Z,925.84
2023-02-25T07:26:57.328Z,925.9
2023-02-25T07:27:57.876Z,925.86
2023-02-25T07:28:58.514Z,925.9
2023-02-25T07:29:59.066Z,925.88
2023-02-25T07:31:00.024Z,925.85
2023-02-25T07:32:01.217Z,925.83
2023-02-25T07:33:02.956Z,925.82
2023-02-25T07:34:01.936Z,925.82
2023-02-25T07:35:02.131Z,925.85
2023-02-25T07:36:02.755Z,925.9
2023-02-25T07:37:02.993Z,925.92
2023-02-25T07:38:03.740Z,925.91
2023-02-25T07:39:04.417Z,925.9
2023-02-25T07:40:05.071Z,925.89
2023-02-25T07:41:05.331Z,925.93
2023-02-25T07:42:05.774Z,925.86
2023-02-25T07:43:06.030Z,925.88
2023-02-25T07:44:06.951Z,925.89
2023-02-25T07:45:07.218Z,925.89
2023-02-25T07:46:07.574Z,925.86
2023-02-25T07:47:08.257Z,925.85
2023-02-25T07:48:08.846Z,925.81
2023-02-25T07:49:09.048Z,925.87
2023-02-25T07:50:12.380Z,925.87
2023-02-25T07:51:10.579Z,925.89
2023-02-25T07:52:10.906Z,925.87
2023-02-25T07:53:11.136Z,925.87
2023-02-25T07:54:12.091Z,925.88
2023-02-25T07:55:12.308Z,925.79
2023-02-25T07:56:12.564Z,925.83
2023-02-25T07:57:13.324Z,925.78
2023-02-25T07:58:14.409Z,925.78
2023-02-25T07:59:15.352Z,925.75
2023-02-25T08:00:15.615Z,925.78
2023-02-25T08:01:16.183Z,925.78
2023-02-25T08:02:16.472Z,925.8
2023-02-25T08:03:16.765Z,925.79
2023-02-25T08:04:16.988Z,925.79
2023-02-25T08:05:17.194Z,925.82
2023-02-25T08:06:17.739Z,925.8
2023-02-25T08:07:18.032Z,925.78
2023-02-25T08:08:18.777Z,925.75
2023-02-25T08:09:19.759Z,925.74
2023-02-25T08:10:20.396Z,925.77
2023-02-25T08:11:20.929Z,925.76
2023-02-25T08:12:21.212Z,925.79
2023-02-25T08:13:21.852Z,925.79
2023-02-25T08:14:22.782Z,925.84
2023-02-25T08:15:23.766Z,925.78
2023-02-25T08:16:24.045Z,925.8
2023-02-25T08:17:24.788Z,925.74
2023-02-25T08:18:25.560Z,925.71
2023-02-25T08:19:25.775Z,925.7
2023-02-25T08:20:26.417Z,925.67
2023-02-25T08:21:26.962Z,925.73
2023-02-25T08:22:27.032Z,925.7
2023-02-25T08:23:27.273Z,925.74
2023-02-25T08:24:27.550Z,925.75
2023-02-25T08:25:27.788Z,925.7
2023-02-25T08:26:28.763Z,925.73
2023-02-25T08:27:29.017Z,925.72
2023-02-25T08:28:31.818Z,925.68
2023-02-25T08:29:29.861Z,925.68
2023-02-25T08:30:30.868Z,925.68
2023-02-25T08:31:31.583Z,925.67
2023-02-25T08:32:31.882Z,925.71
2023-02-25T08:33:31.899Z,925.66
2023-02-25T08:34:32.836Z,925.69
2023-02-25T08:35:33.332Z,925.65
2023-02-25T08:36:34.262Z,925.66
2023-02-25T08:37:34.948Z,925.71
2023-02-25T08:38:35.990Z,925.69
2023-02-25T08:39:36.645Z,925.67
2023-02-25T08:40:37.266Z,925.65
2023-02-25T08:41:38.225Z,925.59
2023-02-25T08:42:38.420Z,925.57
2023-02-25T08:43:39.340Z,925.53
2023-02-25T08:44:39.589Z,925.55
2023-02-25T08:45:40.172Z,925.5
2023-02-25T08:46:40.849Z,925.49
2023-02-25T08:47:41.477Z,925.5
2023-02-25T08:48:41.890Z,925.51
2023-02-25T08:49:42.271Z,925.47
2023-02-25T08:50:43.208Z,925.52
2023-02-25T08:51:43.524Z,925.54
2023-02-25T08:52:44.478Z,925.54
2023-02-25T08:53:45.387Z,925.52
2023-02-25T08:54:46.406Z,925.48
2023-02-25T08:55:47.112Z,925.51
2023-02-25T08:56:48.075Z,925.51
2023-02-25T08:57:48.598Z,925.46
2023-02-25T08:58:49.332Z,925.47
2023-02-25T08:59:50.249Z,925.5
2023-02-25T09:00:50.684Z,925.43
2023-02-25T09:01:51.645Z,925.45
2023-02-25T09:02:52.581Z,925.48
2023-02-25T09:03:53.510Z,925.51
2023-02-25T09:04:53.896Z,925.54
2023-02-25T09:05:54.284Z,925.52
2023-02-25T09:06:55.259Z,925.5
2023-02-25T09:07:56.227Z,925.49
2023-02-25T09:08:56.996Z,925.55
2023-02-25T09:09:57.504Z,925.51
2023-02-25T09:10:58.128Z,925.47
2023-02-25T09:11:58.675Z,925.49
2023-02-25T09:12:59.609Z,925.47
2023-02-25T09:14:00.562Z,925.51
2023-02-25T09:15:01.508Z,925.53
2023-02-25T09:16:02.225Z,925.56
2023-02-25T09:17:03.016Z,925.56
2023-02-25T09:18:03.964Z,925.57
2023-02-25T09:19:04.727Z,925.57
2023-02-25T09:20:05.015Z,925.55
2023-02-25T09:21:05.231Z,925.59
2023-02-25T09:22:05.506Z,925.54
2023-02-25T09:23:06.445Z,925.58
2023-02-25T09:24:06.712Z,925.55
2023-02-25T09:25:06.920Z,925.53
2023-02-25T09:26:07.861Z,925.55
2023-02-25T09:27:08.287Z,925.55
2023-02-25T09:28:08.981Z,925.55
2023-02-25T09:29:09.280Z,925.6
2023-02-25T09:30:10.221Z,925.58
2023-02-25T09:31:10.567Z,925.58
2023-02-25T09:32:10.969Z,925.63
2023-02-25T09:33:11.311Z,925.61
2023-02-25T09:34:11.767Z,925.57
2023-02-25T09:35:12.402Z,925.59
2023-02-25T09:36:12.623Z,925.61
2023-02-25T09:37:12.846Z,925.62
2023-02-25T09:38:13.772Z,925.65
2023-02-25T09:39:14.838Z,925.63
2023-02-25T09:40:15.827Z,925.71
2023-02-25T09:41:16.494Z,925.78
2023-02-25T09:42:16.810Z,925.77
2023-02-25T09:43:17.317Z,925.77
2023-02-25T09:44:17.534Z,925.83
2023-02-25T09:45:18.075Z,925.79
2023-02-25T09:46:19.083Z,925.8
2023-02-25T09:47:19.657Z,925.83
2023-02-25T09:48:20.507Z,925.84
2023-02-25T09:49:20.744Z,925.82
2023-02-25T09:50:21.053Z,925.8
2023-02-25T09:51:21.455Z,925.81
2023-02-25T09:52:22.202Z,925.81
2023-02-25T09:53:22.440Z,925.81
2023-02-25T09:54:22.642Z,925.79
2023-02-25T09:55:22.904Z,925.82
2023-02-25T09:56:23.407Z,925.75
2023-02-25T09:57:23.646Z,925.73
2023-02-25T09:58:24.174Z,925.76
2023-02-25T09:59:25.246Z,925.78
2023-02-25T10:00:26.180Z,925.74
2023-02-25T10:01:26.437Z,925.69
2023-02-25T10:02:26.736Z,925.7
2023-02-25T10:03:27.175Z,925.67
2023-02-25T10:04:27.884Z,925.71
2023-02-25T10:05:28.618Z,925.71
2023-02-25T10:06:29.556Z,925.71
2023-02-25T10:07:29.787Z,925.71
2023-02-25T10:08:30.011Z,925.71
2023-02-25T10:09:31.046Z,925.72
2023-02-25T10:10:32.027Z,925.7
2023-02-25T10:11:33.002Z,925.74
2023-02-25T10:12:33.303Z,925.75
2023-02-25T10:13:34.370Z,925.77
2023-02-25T10:14:34.574Z,925.76
2023-02-25T10:15:35.092Z,925.75
2023-02-25T10:16:35.571Z,925.74
2023-02-25T10:17:36.246Z,925.73
2023-02-25T10:18:36.744Z,925.77
2023-02-25T10:19:37.122Z,925.77
2023-02-25T10:20:37.806Z,925.75
2023-02-25T10:21:38.311Z,925.73
2023-02-25T10:22:38.834Z,925.78
2023-02-25T10:23:39.774Z,925.73
2023-02-25T10:24:40.012Z,925.73
2023-02-25T10:25:40.549Z,925.74
2023-02-25T10:26:41.040Z,925.73
2023-02-25T10:27:41.605Z,925.77
2023-02-25T10:28:41.990Z,925.76
2023-02-25T10:29:42.383Z,925.76
2023-02-25T10:30:43.122Z,925.75
2023-02-25T10:31:43.973Z,925.79
2023-02-25T10:32:44.559Z,925.76
2023-02-25T10:33:44.649Z,925.77
2023-02-25T10:34:45.551Z,925.77
2023-02-25T10:35:46.470Z,925.8
2023-02-25T10:36:46.853Z,925.75
2023-02-25T10:37:47.128Z,925.76
2023-02-25T10:38:48.157Z,925.75
2023-02-25T10:39:48.561Z,925.76
2023-02-25T10:40:49.537Z,925.79
2023-02-25T10:41:50.074Z,925.76
2023-02-25T10:42:51.100Z,925.75
2023-02-25T10:43:52.099Z,925.8
2023-02-25T10:44:52.780Z,925.84
2023-02-25T10:45:53.063Z,925.81
2023-02-25T10:46:53.616Z,925.78
2023-02-25T10:47:53.879Z,925.76
2023-02-25T10:48:54.113Z,925.74
2023-02-25T10:49:54.616Z,925.74
2023-02-25T10:50:55.014Z,925.75
2023-02-25T10:51:55.230Z,925.72
2023-02-25T10:52:55.481Z,925.69
2023-02-25T10:53:55.842Z,925.71
2023-02-25T10:54:56.239Z,925.73
2023-02-25T10:55:57.184Z,925.73
2023-02-25T10:56:57.384Z,925.67
2023-02-25T10:57:57.961Z,925.66
2023-02-25T10:58:58.916Z,925.7
2023-02-25T10:59:59.491Z,925.7
2023-02-25T11:01:00.657Z,925.76
2023-02-25T11:02:00.936Z,925.74
2023-02-25T11:03:01.870Z,925.76
2023-02-25T11:04:02.585Z,925.76
2023-02-25T11:05:03.087Z,925.74
2023-02-25T11:06:03.704Z,925.8
2023-02-25T11:07:04.722Z,925.74
2023-02-25T11:08:05.077Z,925.77
2023-02-25T11:09:06.068Z,925.74
2023-02-25T11:10:06.374Z,925.77
2023-02-25T11:11:06.621Z,925.77
2023-02-25T11:12:07.623Z,925.73
2023-02-25T11:13:08.607Z,925.74
2023-02-25T11:14:09.132Z,925.71
2023-02-25T11:15:10.152Z,925.76
2023-02-25T11:16:10.382Z,925.74
2023-02-25T11:17:10.672Z,925.74
2023-02-25T11:18:11.683Z,925.75
2023-02-25T11:19:11.970Z,925.73
2023-02-25T11:20:12.431Z,925.7
2023-02-25T11:21:12.607Z,925.66
2023-02-25T11:22:12.913Z,925.65
2023-02-25T11:23:13.239Z,925.68
2023-02-25T11:24:13.670Z,925.62
2023-02-25T11:25:14.626Z,925.62
2023-02-25T11:26:15.029Z,925.61
2023-02-25T11:27:15.246Z,925.59
2023-02-25T11:28:15.848Z,925.58
2023-02-25T11:29:16.772Z,925.59
2023-02-25T11:30:17.441Z,925.57
2023-02-25T11:31:17.977Z,925.55
2023-02-25T11:32:18.059Z,925.55
2023-02-25T11:33:18.467Z,925.5
2023-02-25T11:34:19.009Z,925.5
2023-02-25T11:35:19.850Z,925.49
2023-02-25T11:36:21.009Z,925.46
2023-02-25T11:37:21.718Z,925.5
2023-02-25T11:38:22.592Z,925.49
2023-02-25T11:39:22.853Z,925.47
2023-02-25T11:40:23.621Z,925.43
2023-02-25T11:41:24.185Z,925.43
2023-02-25T11:42:24.537Z,925.4
2023-02-25T11:43:24.937Z,925.42
2023-02-25T11:44:25.287Z,925.43
2023-02-25T11:45:26.217Z,925.4
2023-02-25T11:46:26.914Z,925.4
2023-02-25T11:47:27.538Z,925.38
2023-02-25T11:48:28.112Z,925.36
2023-02-25T11:49:29.031Z,925.4
2023-02-25T11:50:30.101Z,925.41
2023-02-25T11:51:31.061Z,925.42
2023-02-25T11:52:31.551Z,925.37
2023-02-25T11:53:32.526Z,925.36
2023-02-25T11:54:33.565Z,925.42
2023-02-25T11:55:34.065Z,925.38
2023-02-25T11:56:34.589Z,925.37
2023-02-25T11:57:35.250Z,925.34
2023-02-25T11:58:35.983Z,925.36
2023-02-25T11:59:36.911Z,925.35
2023-02-25T12:00:37.542Z,925.33
2023-02-25T12:01:38.523Z,925.3
2023-02-25T12:02:39.187Z,925.33
2023-02-25T12:03:39.969Z,925.29
2023-02-25T12:04:40.336Z,925.31
2023-02-25T12:05:40.881Z,925.31
2023-02-25T12:06:41.962Z,925.27
2023-02-25T12:07:47.785Z,925.33
2023-02-25T12:08:42.687Z,925.3
2023-02-25T12:09:43.634Z,925.27
2023-02-25T12:10:44.683Z,925.27
2023-02-25T12:11:45.170Z,925.27
2023-02-25T12:12:45.384Z,925.22
2023-02-25T12:13:45.633Z,925.27
2023-02-25T12:14:46.505Z,925.23
2023-02-25T12:15:46.994Z,925.23
2023-02-25T12:16:47.465Z,925.19
2023-02-25T12:17:48.393Z,925.18
2023-02-25T12:18:48.687Z,925.17
2023-02-25T12:19:48.797Z,925.14
2023-02-25T12:20:49.271Z,925.18
2023-02-25T12:21:49.577Z,925.12
2023-02-25T12:22:50.503Z,925.12
2023-02-25T12:23:51.145Z,925.14
2023-02-25T12:24:51.379Z,925.12
2023-02-25T12:25:51.874Z,925.1
2023-02-25T12:26:52.086Z,925.1
2023-02-25T12:27:53.051Z,925.14
2023-02-25T12:28:53.321Z,925.1
2023-02-25T12:29:54.241Z,925.1
2023-02-25T12:30:54.908Z,925.08
2023-02-25T12:31:55.786Z,925.09
2023-02-25T12:32:56.512Z,925.1
2023-02-25T12:33:56.746Z,925.13
2023-02-25T12:34:57.259Z,925.15
2023-02-25T12:35:57.905Z,925.1
2023-02-25T12:36:58.825Z,925.17
2023-02-25T12:37:59.729Z,925.14
2023-02-25T12:39:00.708Z,925.16